Chaparral, New Mexico
Current Conditions -  °F | °C
As of 6:58 AM on Saturday 25 Oct 2014 (Local Time) from KBIF Reporting Station
Clear Clear  
Wind Chill: 50°   Ceiling: Unl
Heat Index: 50°   Visibility: 10mi
Dew Point: 48°   Wind: 6mph
Humidity: 93%   Direction: 40°NE
Pressure: 30.22"   Gusts: NA
Location:  32.03°N, 106.4°W
Report Text: KBIF 251258Z AUTO 04005KT 10SM CLR 10/09 A3022 RMK AO2 SLP190 T01000089
Loading
Personal Weather Stations






























Interactive Weather Map
Tropical Storm Tracking
New forecast layout! Learn more

10-Day Weather Forecast

Advertisements
Track Severe Weather on mobile